Flight Track Log - Related Links

Times and Time Zones

All times are in EDT time to prevent confusion due to time zone crossing. See the N79470 flight status page for this flight to view local times or setup timezone preferences in your user account.

Time Position Orientation Groundspeed Altitude Reporting Facility
EDT Latitude Longitude Course Direction KTS MPH feet Rate Location/Type
Thu 09:31:18 AM 44.4925 -72.4894 254° West 119 137 5,300  Level Boston Center
Thu 09:32:18 AM 44.5050 -72.5100 310° West 90 104 5,800 500 Climbing Boston Center
Thu 09:33:18 AM 44.5008 -72.5389 259° West 59 68 6,300 450 Climbing Boston Center
Thu 09:34:18 AM 44.4989 -72.5594 262° West 59 68 6,700 550 Climbing Boston Center
Thu 09:35:18 AM 44.4967 -72.5944 265° West 70 81 7,400 250 Climbing Boston Center
Thu 09:36:00 AM 44.5346 -72.6140 254° West  Level Estimated
Thu 09:36:18 AM 44.4967 -72.6264 270° West 75 86 7,200  Level Boston Center
Thu 09:37:18 AM 44.4944 -72.6611 265° West 88 101 7,100  Descending Boston Center
Thu 09:38:18 AM 44.4922 -72.6933 264° West 93 107 7,200  Climbing Boston Center
Thu 09:39:18 AM 44.4881 -72.7253 260° West 87 100 7,100 -50 Descending Boston Center
Thu 09:40:18 AM 44.4817 -72.7542 253° West 87 100 7,100 50 Level Boston Center
Thu 09:41:18 AM 44.4836 -72.7864 275° West 87 100 7,200 -50 Climbing Boston Center
Thu 09:42:18 AM 44.4753 -72.8153 248° West 87 100 7,000 -100 Descending Boston Center
Thu 09:43:18 AM 44.4689 -72.8444 253° West 87 100 7,000 100 Level Boston Center
Thu 09:44:18 AM 44.4647 -72.8678 256° West 81 93 7,200  Climbing Boston Center
Thu 09:45:18 AM 44.4564 -72.8967 248° West 81 93 7,000 -50 Descending Boston Center
Thu 09:46:18 AM 44.4500 -72.9314 256° West 86 99 7,100  Climbing Boston Center
Thu 09:47:18 AM 44.4414 -72.9633 249° West 92 106 7,000 -100 Descending Boston Center
Thu 09:49:00 AM 44.4248 -73.0217 248° West  Level FlightAware Approximate
Thu 09:56:00 AM 44.4396 -73.2320 320° Northwest  Level FlightAware Approximate
Thu 09:57:00 AM 44.4599 -73.2556 320° Northwest  Level FlightAware Approximate
Thu 09:58:00 AM 44.4802 -73.2792 320° Northwest  Level FlightAware Approximate
Thu 09:59:00 AM 44.5005 -73.3028 320° Northwest  Level FlightAware Approximate
Thu 10:00:00 AM 44.5208 -73.3264 320° Northwest  Level FlightAware Approximate
Thu 10:01:00 AM 44.5411 -73.3501 320° Northwest  Level FlightAware Approximate
Thu 10:02:00 AM 44.5614 -73.3738 320° Northwest  Level FlightAware Approximate
Thu 10:03:00 AM 44.5816 -73.3975 320° Northwest  Level FlightAware Approximate
Thu 10:04:00 AM 44.6019 -73.4212 320° Northwest  Level FlightAware Approximate
Thu 10:05:00 AM 44.6222 -73.4449 320° Northwest  Level FlightAware Approximate
Thu 10:06:00 AM 44.6424 -73.4687 320° Northwest  Level FlightAware Approximate
Thu 10:07:00 AM 44.6627 -73.4924 320° Northwest  Level FlightAware Approximate
Thu 10:08:00 AM 44.6829 -73.5162 320° Northwest  Level FlightAware Approximate
Thu 10:09:00 AM 44.6767 -73.4816 105° East  Level FlightAware Approximate
Thu 10:10:00 AM 44.6698 -73.4457 105° East  Level FlightAware Approximate
Thu 10:11:00 AM 44.6630 -73.4099 105° East  Level FlightAware Approximate
Thu 10:12:00 AM 44.6561 -73.3741 105° East  Level FlightAware Approximate
Thu 10:13:00 AM 44.6493 -73.3383 105° East  Level FlightAware Approximate
Thu 10:14:00 AM 44.6424 -73.3025 105° East  Level FlightAware Approximate
Thu 10:15:00 AM 44.6355 -73.2667 105° East  Level FlightAware Approximate
Thu 10:16:00 AM 44.6286 -73.2309 105° East  Level FlightAware Approximate
Thu 10:17:00 AM 44.6217 -73.1952 105° East  Level FlightAware Approximate
Thu 10:18:00 AM 44.6148 -73.1594 105° East  Level FlightAware Approximate
Thu 10:19:00 AM 44.6078 -73.1236 105° East  Level FlightAware Approximate
Thu 10:20:00 AM 44.6009 -73.0879 105° East  Level FlightAware Approximate
Thu 10:21:00 AM 44.5958 -73.0516 101° East  Level FlightAware Approximate
Thu 10:22:00 AM 44.5910 -73.0151 101° East  Level FlightAware Approximate
Thu 10:23:00 AM 44.5861 -72.9787 101° East  Level FlightAware Approximate
Thu 10:24:00 AM 44.5813 -72.9423 101° East  Level FlightAware Approximate
Thu 10:25:00 AM 44.5764 -72.9059 101° East  Level FlightAware Approximate
Thu 10:26:00 AM 44.5715 -72.8695 101° East  Level FlightAware Approximate
Thu 10:27:00 AM 44.5666 -72.8332 101° East  Level FlightAware Approximate
Thu 10:28:00 AM 44.5615 -72.7968 101° East  Level FlightAware Approximate
Thu 10:29:00 AM 44.5563 -72.7605 101° East  Level FlightAware Approximate
Thu 10:30:00 AM 44.5511 -72.7243 101° East  Level FlightAware Approximate
Thu 10:31:00 AM 44.5380 -72.6927 125° Southeast  Level FlightAware Approximate
Thu 10:32:00 AM 44.5333 -72.6578 90° East  Level FlightAware Approximate
Thu 10:33:00 AM 44.5333 -72.6208 90° East  Level FlightAware Approximate
Thu 10:34:00 AM 44.5346 -72.6140 90° East  Level Estimated
Thu 10:35:00 AM 44.5346 -72.6140 90° East  Level Estimated
Thu 10:36:00 AM 44.5346 -72.6140 90° East  Level Estimated
Thu 10:37:00 AM 44.5346 -72.6140 90° East  Level Estimated
Thu 10:38:00 AM 44.5346 -72.6140 90° East  Level Estimated
Thu 10:39:00 AM 44.5346 -72.6140 90° East  Level Estimated

Login

Don't have an account? Register now (free) for customized features, flight alerts, and more!